createdAt,value
2017-09-13T00:00:20.837Z,958.89
2017-09-13T00:01:29.533Z,958.9
2017-09-13T00:02:38.870Z,958.92
2017-09-13T00:03:48.208Z,958.9
2017-09-13T00:04:57.543Z,958.86
2017-09-13T00:06:06.267Z,958.89
2017-09-13T00:07:15.255Z,958.86
2017-09-13T00:08:24.270Z,958.78
2017-09-13T00:09:33.285Z,958.74
2017-09-13T00:10:42.299Z,958.71
2017-09-13T00:11:51.313Z,958.73
2017-09-13T00:13:00.648Z,958.67
2017-09-13T00:14:10.304Z,958.67
2017-09-13T00:15:18.999Z,958.61
2017-09-13T00:16:28.333Z,958.66
2017-09-13T00:17:37.029Z,958.62
2017-09-13T00:18:46.051Z,958.58
2017-09-13T00:19:54.758Z,958.6
2017-09-13T00:21:04.734Z,958.48
2017-09-13T00:22:13.430Z,958.51
2017-09-13T00:23:22.447Z,958.48
2017-09-13T00:24:31.463Z,958.49
2017-09-13T00:25:40.160Z,958.47
2017-09-13T00:26:49.174Z,958.4
2017-09-13T00:27:58.189Z,958.38
2017-09-13T00:29:07.531Z,958.35
2017-09-13T00:30:16.229Z,958.31
2017-09-13T00:31:26.209Z,958.26
2017-09-13T00:32:35.225Z,958.23
2017-09-13T00:33:44.238Z,958.2
2017-09-13T00:34:53.256Z,958.17
2017-09-13T00:36:01.950Z,958.18
2017-09-13T00:37:10.648Z,958.13
2017-09-13T00:38:19.345Z,958.13
2017-09-13T00:39:28.044Z,958.04
2017-09-13T00:40:37.700Z,958
2017-09-13T00:41:46.713Z,957.98
2017-09-13T00:42:56.055Z,957.89
2017-09-13T00:44:05.390Z,957.86
2017-09-13T00:45:14.402Z,957.81
2017-09-13T00:46:23.737Z,957.72
2017-09-13T00:47:32.761Z,957.65
2017-09-13T00:48:42.096Z,957.65
2017-09-13T00:49:51.111Z,957.57
2017-09-13T00:51:00.775Z,957.51
2017-09-13T00:52:09.791Z,957.55
2017-09-13T00:53:19.124Z,957.46
2017-09-13T00:54:28.779Z,957.42
2017-09-13T00:55:38.433Z,957.32
2017-09-13T00:56:47.446Z,957.26
2017-09-13T00:57:56.461Z,957.19
2017-09-13T00:59:05.478Z,957.18
2017-09-13T01:00:15.131Z,957.2
2017-09-13T01:01:23.825Z,957.15
2017-09-13T01:02:33.164Z,957.16
2017-09-13T01:03:42.175Z,957.11
2017-09-13T01:04:50.871Z,957.11
2017-09-13T01:05:59.568Z,957.08
2017-09-13T01:07:08.267Z,956.98
2017-09-13T01:08:17.939Z,957.02
2017-09-13T01:09:27.278Z,956.98
2017-09-13T01:10:35.976Z,956.91
2017-09-13T01:11:45.314Z,956.86
2017-09-13T01:12:55.290Z,956.84
2017-09-13T01:14:04.627Z,956.79
2017-09-13T01:15:13.961Z,956.8
2017-09-13T01:16:22.977Z,956.79
2017-09-13T01:17:32.633Z,956.66
2017-09-13T01:18:41.647Z,956.73
2017-09-13T01:19:50.661Z,956.57
2017-09-13T01:21:00.005Z,956.51
2017-09-13T01:22:09.338Z,956.54
2017-09-13T01:23:18.675Z,956.44
2017-09-13T01:24:27.692Z,956.39
2017-09-13T01:25:36.710Z,956.37
2017-09-13T01:26:45.403Z,956.36
2017-09-13T01:27:55.379Z,956.35
2017-09-13T01:29:04.393Z,956.35
2017-09-13T01:30:13.408Z,956.18
2017-09-13T01:31:22.421Z,956.1
2017-09-13T01:32:31.759Z,956
2017-09-13T01:33:40.777Z,956
2017-09-13T01:34:49.792Z,955.99
2017-09-13T01:35:58.489Z,955.87
2017-09-13T01:37:07.826Z,955.89
2017-09-13T01:38:17.159Z,955.87
2017-09-13T01:39:26.819Z,955.85
2017-09-13T01:40:36.478Z,955.8
2017-09-13T01:41:45.811Z,955.88
2017-09-13T01:42:54.828Z,955.91
2017-09-13T01:44:04.486Z,955.86
2017-09-13T01:45:13.180Z,955.86
2017-09-13T01:46:22.876Z,955.75
2017-09-13T01:47:32.540Z,955.72
2017-09-13T01:48:42.196Z,955.59
2017-09-13T01:49:50.893Z,955.5
2017-09-13T01:50:59.919Z,955.46
2017-09-13T01:52:08.617Z,955.37
2017-09-13T01:53:17.956Z,955.41
2017-09-13T01:54:26.651Z,955.3
2017-09-13T01:55:35.984Z,955.19
2017-09-13T01:56:45.001Z,955.23
2017-09-13T01:57:54.341Z,955.21
2017-09-13T01:59:03.366Z,955.17
2017-09-13T02:00:12.068Z,955.14
2017-09-13T02:01:21.730Z,955.08
2017-09-13T02:02:30.744Z,954.97
2017-09-13T02:03:40.419Z,954.89
2017-09-13T02:04:49.114Z,954.91
2017-09-13T02:05:58.129Z,954.76
2017-09-13T02:07:07.145Z,954.86
2017-09-13T02:08:15.861Z,954.85
2017-09-13T02:09:25.172Z,954.66
2017-09-13T02:10:35.141Z,954.72
2017-09-13T02:11:43.836Z,954.69
2017-09-13T02:12:53.169Z,954.7
2017-09-13T02:14:02.185Z,954.71
2017-09-13T02:15:11.514Z,954.65
2017-09-13T02:16:20.534Z,954.68
2017-09-13T02:17:29.870Z,954.65
2017-09-13T02:18:38.893Z,954.59
2017-09-13T02:19:47.907Z,954.55
2017-09-13T02:20:56.920Z,954.59
2017-09-13T02:22:05.935Z,954.54
2017-09-13T02:23:15.272Z,954.46
2017-09-13T02:24:24.612Z,954.33
2017-09-13T02:25:33.309Z,954.21
2017-09-13T02:26:42.648Z,954.15
2017-09-13T02:27:51.340Z,954.18
2017-09-13T02:29:00.674Z,954.08
2017-09-13T02:30:09.372Z,954.02
2017-09-13T02:31:18.389Z,954.08
2017-09-13T02:32:27.727Z,954.04
2017-09-13T02:33:37.388Z,954.08
2017-09-13T02:34:46.407Z,953.99
2017-09-13T02:35:55.747Z,954.03
2017-09-13T02:37:04.794Z,954.02
2017-09-13T02:38:14.151Z,954.09
2017-09-13T02:39:22.845Z,954.13
2017-09-13T02:40:31.547Z,954.29
2017-09-13T02:41:40.240Z,954.37
2017-09-13T02:42:48.937Z,954.39
2017-09-13T02:43:58.275Z,954.46
2017-09-13T02:45:06.970Z,954.45
2017-09-13T02:46:16.628Z,954.51
2017-09-13T02:47:25.646Z,954.61
2017-09-13T02:48:34.662Z,954.49
2017-09-13T02:49:43.682Z,954.54
2017-09-13T02:50:52.697Z,954.23
2017-09-13T02:52:01.715Z,954.17
2017-09-13T02:53:11.049Z,953.97
2017-09-13T02:54:21.033Z,953.78
2017-09-13T02:55:29.729Z,953.65
2017-09-13T02:56:39.387Z,953.46
2017-09-13T02:57:49.039Z,953.47
2017-09-13T02:58:57.746Z,953.49
2017-09-13T03:00:07.077Z,953.43
2017-09-13T03:01:16.734Z,953.38
2017-09-13T03:02:25.750Z,953.43
2017-09-13T03:03:35.083Z,953.44
2017-09-13T03:04:43.789Z,953.55
2017-09-13T03:05:52.808Z,953.54
2017-09-13T03:07:01.820Z,953.57
2017-09-13T03:08:10.515Z,953.48
2017-09-13T03:09:19.209Z,953.37
2017-09-13T03:10:28.546Z,953.32
2017-09-13T03:11:38.202Z,953.31
2017-09-13T03:12:46.897Z,953.31
2017-09-13T03:13:55.914Z,953.37
2017-09-13T03:15:04.609Z,953.32
2017-09-13T03:16:13.625Z,953.3
2017-09-13T03:17:23.287Z,953.36
2017-09-13T03:18:32.299Z,953.31
2017-09-13T03:19:41.636Z,953.32
2017-09-13T03:20:50.969Z,953.21
2017-09-13T03:22:00.628Z,953.15
2017-09-13T03:23:10.290Z,953.08
2017-09-13T03:24:20.583Z,953.05
2017-09-13T03:25:30.238Z,953.01
2017-09-13T03:26:39.252Z,952.99
2017-09-13T03:27:48.908Z,952.94
2017-09-13T03:28:57.607Z,952.92
2017-09-13T03:30:06.953Z,952.87
2017-09-13T03:31:16.304Z,952.97
2017-09-13T03:32:25.650Z,952.92
2017-09-13T03:33:34.347Z,952.85
2017-09-13T03:34:43.680Z,952.87
2017-09-13T03:35:52.709Z,952.89
2017-09-13T03:37:01.724Z,952.72
2017-09-13T03:38:11.060Z,952.77
2017-09-13T03:39:20.395Z,952.81
2017-09-13T03:40:29.090Z,952.81
2017-09-13T03:41:38.429Z,952.77
2017-09-13T03:42:47.123Z,952.82
2017-09-13T03:43:55.818Z,952.72
2017-09-13T03:45:05.152Z,952.76
2017-09-13T03:46:14.165Z,952.75
2017-09-13T03:47:23.503Z,952.6
2017-09-13T03:48:32.841Z,952.62
2017-09-13T03:49:41.533Z,952.6
2017-09-13T03:50:50.230Z,952.59
2017-09-13T03:51:58.927Z,952.64
2017-09-13T03:53:07.943Z,952.74
2017-09-13T03:54:16.959Z,952.58
2017-09-13T03:55:25.654Z,952.56
2017-09-13T03:56:34.670Z,952.65
2017-09-13T03:57:43.685Z,952.62
2017-09-13T03:58:52.384Z,952.63
2017-09-13T04:00:01.081Z,952.61
2017-09-13T04:01:09.781Z,952.48
2017-09-13T04:02:19.117Z,952.41
2017-09-13T04:03:28.449Z,952.28
2017-09-13T04:04:38.104Z,952.33
2017-09-13T04:05:46.799Z,952.27
2017-09-13T04:06:55.812Z,952.18
2017-09-13T04:08:05.154Z,952.05
2017-09-13T04:09:13.844Z,952.09
2017-09-13T04:10:23.177Z,952.24
2017-09-13T04:11:32.512Z,952.08
2017-09-13T04:12:41.529Z,952.19
2017-09-13T04:13:50.865Z,952.16
2017-09-13T04:14:59.560Z,952.21
2017-09-13T04:16:08.896Z,952.2
2017-09-13T04:17:18.230Z,952.15
2017-09-13T04:18:26.926Z,952.02
2017-09-13T04:19:36.263Z,952.09
2017-09-13T04:20:44.960Z,952.01
2017-09-13T04:21:53.974Z,951.96
2017-09-13T04:23:02.671Z,951.93
2017-09-13T04:24:12.005Z,952.01
2017-09-13T04:25:21.662Z,951.99
2017-09-13T04:26:30.677Z,951.91
2017-09-13T04:27:39.388Z,951.88
2017-09-13T04:28:48.392Z,951.78
2017-09-13T04:29:57.731Z,951.86
2017-09-13T04:31:06.745Z,951.87
2017-09-13T04:32:16.087Z,951.85
2017-09-13T04:33:25.102Z,951.79
2017-09-13T04:34:33.799Z,951.6
2017-09-13T04:35:43.136Z,951.47
2017-09-13T04:36:52.151Z,951.65
2017-09-13T04:38:01.165Z,951.53
2017-09-13T04:39:10.823Z,951.56
2017-09-13T04:40:20.476Z,951.6
2017-09-13T04:41:29.491Z,951.62
2017-09-13T04:42:38.506Z,951.53
2017-09-13T04:43:47.522Z,951.41
2017-09-13T04:44:56.539Z,951.37
2017-09-13T04:46:05.238Z,951.34
2017-09-13T04:47:14.252Z,951.34
2017-09-13T04:48:23.592Z,951.34
2017-09-13T04:49:33.246Z,951.34
2017-09-13T04:50:42.263Z,951.25
2017-09-13T04:51:51.276Z,951.24
2017-09-13T04:53:00.961Z,951.25
2017-09-13T04:54:10.295Z,951.35
2017-09-13T04:55:18.996Z,951.26
2017-09-13T04:56:28.334Z,951.31
2017-09-13T04:57:37.030Z,951.3
2017-09-13T04:58:46.046Z,951.31
2017-09-13T04:59:54.742Z,951.29
2017-09-13T05:01:03.439Z,951.29
2017-09-13T05:02:12.452Z,951.26
2017-09-13T05:03:21.469Z,951.34
2017-09-13T05:04:31.123Z,951.35
2017-09-13T05:05:40.477Z,951.37
2017-09-13T05:06:50.126Z,951.3
2017-09-13T05:07:59.465Z,951.21
2017-09-13T05:09:09.122Z,951.32
2017-09-13T05:10:18.778Z,951.24
2017-09-13T05:11:28.121Z,951.26
2017-09-13T05:12:37.137Z,951.26
2017-09-13T05:13:46.150Z,951.28
2017-09-13T05:14:54.847Z,951.2
2017-09-13T05:16:04.820Z,951.31
2017-09-13T05:17:13.517Z,951.28
2017-09-13T05:18:22.210Z,951.2
2017-09-13T05:19:31.869Z,951.26
2017-09-13T05:20:40.571Z,951.12
2017-09-13T05:21:49.269Z,951.37
2017-09-13T05:22:58.283Z,951.15
2017-09-13T05:24:07.942Z,951.25
2017-09-13T05:25:16.642Z,951.19
2017-09-13T05:26:25.665Z,951.23
2017-09-13T05:27:35.960Z,951.13
2017-09-13T05:28:44.668Z,951.05
2017-09-13T05:29:53.684Z,951.14
2017-09-13T05:31:02.702Z,951.19
2017-09-13T05:32:12.038Z,951.18
2017-09-13T05:33:21.381Z,951.15
2017-09-13T05:34:30.717Z,951.13
2017-09-13T05:35:40.051Z,951.21
2017-09-13T05:36:49.705Z,951.18
2017-09-13T05:37:58.401Z,951.14
2017-09-13T05:39:07.094Z,951.23
2017-09-13T05:40:16.111Z,951.19
2017-09-13T05:41:25.128Z,951.1
2017-09-13T05:42:34.461Z,951.06
2017-09-13T05:43:43.801Z,951.04
2017-09-13T05:44:53.133Z,951.03
2017-09-13T05:46:02.147Z,951
2017-09-13T05:47:11.163Z,950.94
2017-09-13T05:48:20.180Z,950.99
2017-09-13T05:49:29.195Z,950.99
2017-09-13T05:50:38.211Z,950.89
2017-09-13T05:51:48.186Z,950.79
2017-09-13T05:52:57.523Z,950.91
2017-09-13T05:54:06.218Z,950.9
2017-09-13T05:55:14.914Z,950.87
2017-09-13T05:56:23.929Z,950.75
2017-09-13T05:57:33.581Z,950.91
2017-09-13T05:58:42.279Z,950.88
2017-09-13T05:59:51.294Z,950.91
2017-09-13T06:01:00.313Z,950.92
2017-09-13T06:02:09.669Z,950.88
2017-09-13T06:03:18.368Z,950.88
2017-09-13T06:04:27.064Z,950.88
2017-09-13T06:05:36.082Z,950.8
2017-09-13T06:06:45.098Z,950.78
2017-09-13T06:07:54.111Z,950.64
2017-09-13T06:09:03.127Z,950.64
2017-09-13T06:10:11.820Z,950.64
2017-09-13T06:11:21.172Z,950.53
2017-09-13T06:12:30.188Z,950.6
2017-09-13T06:13:38.885Z,950.49
2017-09-13T06:14:48.221Z,950.72
2017-09-13T06:15:57.236Z,950.68
2017-09-13T06:17:05.933Z,950.67
2017-09-13T06:18:14.951Z,950.54
2017-09-13T06:19:23.652Z,950.76
2017-09-13T06:20:32.347Z,950.64
2017-09-13T06:21:41.367Z,950.61
2017-09-13T06:22:51.020Z,950.66
2017-09-13T06:24:00.036Z,950.62
2017-09-13T06:25:09.370Z,950.63
2017-09-13T06:26:18.401Z,950.57
2017-09-13T06:27:27.419Z,950.69
2017-09-13T06:28:36.432Z,950.56
2017-09-13T06:29:46.088Z,950.76
2017-09-13T06:30:55.424Z,950.72
2017-09-13T06:32:04.759Z,950.58
2017-09-13T06:33:14.092Z,950.79
2017-09-13T06:34:23.428Z,950.8
2017-09-13T06:35:33.402Z,950.71
2017-09-13T06:36:43.058Z,950.58
2017-09-13T06:37:53.034Z,950.56
2017-09-13T06:39:02.372Z,950.68
2017-09-13T06:40:11.386Z,950.69
2017-09-13T06:41:20.401Z,950.78
2017-09-13T06:42:29.438Z,950.93
2017-09-13T06:43:38.779Z,950.84
2017-09-13T06:44:48.112Z,950.77
2017-09-13T06:45:57.448Z,950.65
2017-09-13T06:47:06.785Z,950.8
2017-09-13T06:48:16.438Z,950.63
2017-09-13T06:49:26.093Z,950.56
2017-09-13T06:50:35.432Z,950.68
2017-09-13T06:51:44.450Z,950.72
2017-09-13T06:52:53.791Z,950.85
2017-09-13T06:54:02.486Z,950.79
2017-09-13T06:55:11.822Z,950.81
2017-09-13T06:56:21.162Z,950.75
2017-09-13T06:57:30.494Z,950.91
2017-09-13T06:58:39.510Z,950.97
2017-09-13T06:59:48.522Z,951.17
2017-09-13T07:00:57.541Z,950.97
2017-09-13T07:02:06.588Z,950.84
2017-09-13T07:03:15.285Z,950.93
2017-09-13T07:04:24.623Z,950.96
2017-09-13T07:05:34.278Z,950.81
2017-09-13T07:06:43.938Z,950.77
2017-09-13T07:07:53.281Z,950.75
2017-09-13T07:09:02.617Z,950.83
2017-09-13T07:10:12.277Z,950.88
2017-09-13T07:11:21.294Z,950.92
2017-09-13T07:12:30.309Z,950.98
2017-09-13T07:13:39.329Z,950.92
2017-09-13T07:14:49.315Z,951.1
2017-09-13T07:15:58.012Z,951.09
2017-09-13T07:17:07.036Z,951.08
2017-09-13T07:18:15.737Z,950.99
2017-09-13T07:19:24.433Z,951.12
2017-09-13T07:20:33.452Z,951.11
2017-09-13T07:21:42.469Z,951.09
2017-09-13T07:22:51.168Z,951.08
2017-09-13T07:24:00.845Z,951.13
2017-09-13T07:25:10.502Z,951.09
2017-09-13T07:26:19.517Z,951.14
2017-09-13T07:27:28.215Z,951.11
2017-09-13T07:28:37.229Z,951.11
2017-09-13T07:29:46.243Z,951.05
2017-09-13T07:30:55.267Z,950.96
2017-09-13T07:32:04.605Z,950.98
2017-09-13T07:33:13.945Z,951.13
2017-09-13T07:34:23.602Z,951.02
2017-09-13T07:35:33.261Z,951.07
2017-09-13T07:36:42.278Z,951.15
2017-09-13T07:37:51.295Z,951.08
2017-09-13T07:38:59.991Z,951.12
2017-09-13T07:40:09.020Z,951.11
2017-09-13T07:41:18.354Z,951.02
2017-09-13T07:42:27.698Z,951.08
2017-09-13T07:43:36.715Z,951.12
2017-09-13T07:44:46.055Z,951.11
2017-09-13T07:45:55.073Z,951.12
2017-09-13T07:47:04.091Z,951.04
2017-09-13T07:48:13.106Z,951.13
2017-09-13T07:49:22.123Z,951.03
2017-09-13T07:50:31.458Z,951.11
2017-09-13T07:51:40.153Z,951.08
2017-09-13T07:52:49.488Z,951.13
2017-09-13T07:53:58.185Z,951.13
2017-09-13T07:55:08.164Z,951.05
2017-09-13T07:56:16.860Z,951.16
2017-09-13T07:57:25.562Z,951.17
2017-09-13T07:58:34.584Z,951.07
2017-09-13T07:59:43.926Z,951.07
2017-09-13T08:00:52.624Z,951.12
2017-09-13T08:02:01.961Z,951.17
2017-09-13T08:03:10.982Z,951.11
2017-09-13T08:04:19.684Z,951.13
2017-09-13T08:05:29.026Z,951.15
2017-09-13T08:06:38.368Z,951.24
2017-09-13T08:07:47.070Z,951.13
2017-09-13T08:08:57.372Z,951.13
2017-09-13T08:10:06.707Z,951.27
2017-09-13T08:11:15.405Z,951.39
2017-09-13T08:12:25.064Z,951.36
2017-09-13T08:13:34.406Z,951.2
2017-09-13T08:14:43.428Z,951.37
2017-09-13T08:15:53.088Z,951.17
2017-09-13T08:17:02.106Z,951.38
2017-09-13T08:18:11.443Z,951.16
2017-09-13T08:19:20.145Z,951.27
2017-09-13T08:20:29.806Z,951.37
2017-09-13T08:21:39.146Z,951.4
2017-09-13T08:22:48.489Z,951.39
2017-09-13T08:23:57.511Z,951.36
2017-09-13T08:25:06.853Z,951.49
2017-09-13T08:26:16.192Z,951.45
2017-09-13T08:27:25.214Z,951.48
2017-09-13T08:28:33.916Z,951.44
2017-09-13T08:29:42.616Z,951.39
2017-09-13T08:30:51.962Z,951.47
2017-09-13T08:32:00.980Z,951.55
2017-09-13T08:33:10.319Z,951.47
2017-09-13T08:34:19.020Z,951.59
2017-09-13T08:35:28.038Z,951.58
2017-09-13T08:36:37.700Z,951.45
2017-09-13T08:37:47.038Z,951.8
2017-09-13T08:38:56.062Z,951.65
2017-09-13T08:40:05.400Z,951.85
2017-09-13T08:41:14.419Z,951.75
2017-09-13T08:42:23.756Z,951.79
2017-09-13T08:43:32.782Z,951.62
2017-09-13T08:44:41.480Z,951.67
2017-09-13T08:45:51.148Z,951.67
2017-09-13T08:47:01.129Z,951.46
2017-09-13T08:48:09.827Z,951.53
2017-09-13T08:49:19.486Z,951.51
2017-09-13T08:50:29.158Z,951.36
2017-09-13T08:51:38.817Z,951.58
2017-09-13T08:52:47.838Z,951.7
2017-09-13T08:53:56.537Z,951.46
2017-09-13T08:55:06.517Z,951.52
2017-09-13T08:56:15.856Z,951.55
2017-09-13T08:57:25.192Z,951.56
2017-09-13T08:58:34.209Z,951.67
2017-09-13T08:59:43.551Z,951.59
2017-09-13T09:00:53.216Z,951.56
2017-09-13T09:02:02.231Z,951.56
2017-09-13T09:03:11.249Z,951.59
2017-09-13T09:04:19.948Z,951.65
2017-09-13T09:05:29.286Z,951.66
2017-09-13T09:06:38.620Z,951.7
2017-09-13T09:07:47.319Z,951.78
2017-09-13T09:08:56.659Z,951.72
2017-09-13T09:10:05.678Z,951.71
2017-09-13T09:11:14.704Z,951.69
2017-09-13T09:12:23.721Z,951.87
2017-09-13T09:13:32.739Z,951.7
2017-09-13T09:14:41.436Z,951.71
2017-09-13T09:15:50.455Z,951.71
2017-09-13T09:17:00.437Z,951.76
2017-09-13T09:18:09.772Z,951.8
2017-09-13T09:19:18.798Z,951.8
2017-09-13T09:20:27.496Z,951.95
2017-09-13T09:21:37.157Z,951.72
2017-09-13T09:22:46.495Z,951.72
2017-09-13T09:23:55.514Z,951.72
2017-09-13T09:25:04.860Z,951.77
2017-09-13T09:26:14.204Z,951.76
2017-09-13T09:27:22.914Z,951.82
2017-09-13T09:28:31.937Z,951.82
2017-09-13T09:29:41.277Z,951.82
2017-09-13T09:30:49.978Z,951.76
2017-09-13T09:31:59.320Z,951.66
2017-09-13T09:33:08.663Z,951.58
2017-09-13T09:34:17.365Z,951.68
2017-09-13T09:35:26.706Z,952.01
2017-09-13T09:36:36.045Z,951.91
2017-09-13T09:37:45.381Z,951.83
2017-09-13T09:38:55.045Z,951.91
2017-09-13T09:40:04.066Z,951.94
2017-09-13T09:41:13.089Z,951.71
2017-09-13T09:42:22.108Z,951.96
2017-09-13T09:43:31.122Z,951.93
2017-09-13T09:44:40.778Z,951.97
2017-09-13T09:45:49.792Z,951.74
2017-09-13T09:46:59.127Z,951.92
2017-09-13T09:48:08.143Z,951.88
2017-09-13T09:49:17.485Z,951.95
2017-09-13T09:50:27.788Z,951.89
2017-09-13T09:51:37.445Z,951.95
2017-09-13T09:52:47.102Z,951.93
2017-09-13T09:53:55.800Z,951.98
2017-09-13T09:55:05.138Z,951.9
2017-09-13T09:56:14.476Z,951.89
2017-09-13T09:57:23.814Z,951.98
2017-09-13T09:58:32.513Z,952.05
2017-09-13T09:59:41.530Z,951.94
2017-09-13T10:00:50.873Z,951.92
2017-09-13T10:01:59.890Z,952.09
2017-09-13T10:03:09.866Z,952.1
2017-09-13T10:04:19.201Z,952.05
2017-09-13T10:05:28.861Z,951.98
2017-09-13T10:06:38.198Z,952.31
2017-09-13T10:07:46.895Z,952.06
2017-09-13T10:08:55.913Z,952.18
2017-09-13T10:10:05.250Z,952.09
2017-09-13T10:11:14.269Z,952.15
2017-09-13T10:12:23.289Z,952.12
2017-09-13T10:13:32.305Z,952.13
2017-09-13T10:14:41.324Z,952.2
2017-09-13T10:15:50.338Z,952.24
2017-09-13T10:16:59.673Z,952.15
2017-09-13T10:18:09.012Z,952.07
2017-09-13T10:19:18.346Z,952.15
2017-09-13T10:20:27.361Z,952.24
2017-09-13T10:21:36.705Z,952.24
2017-09-13T10:22:46.362Z,952.28
2017-09-13T10:23:55.696Z,952.22
2017-09-13T10:25:05.034Z,952.23
2017-09-13T10:26:14.053Z,952.35
2017-09-13T10:27:24.030Z,952.4
2017-09-13T10:28:32.730Z,952.36
2017-09-13T10:29:41.747Z,952.28
2017-09-13T10:30:51.085Z,952.4
2017-09-13T10:32:00.743Z,952.38
2017-09-13T10:33:09.760Z,952.48
2017-09-13T10:34:18.785Z,952.58
2017-09-13T10:35:27.482Z,952.54
2017-09-13T10:36:37.140Z,952.55
2017-09-13T10:37:46.162Z,952.58
2017-09-13T10:38:55.181Z,952.59
2017-09-13T10:40:03.883Z,952.53
2017-09-13T10:41:13.221Z,952.62
2017-09-13T10:42:22.879Z,952.56
2017-09-13T10:43:31.904Z,952.59
2017-09-13T10:44:40.925Z,952.62
2017-09-13T10:45:49.945Z,952.56
2017-09-13T10:46:58.964Z,952.51
2017-09-13T10:48:07.987Z,952.6
2017-09-13T10:49:17.018Z,952.53
2017-09-13T10:50:26.034Z,952.68
2017-09-13T10:51:35.377Z,952.51
2017-09-13T10:52:44.400Z,952.61
2017-09-13T10:53:53.747Z,952.58
2017-09-13T10:55:02.765Z,952.6
2017-09-13T10:56:12.108Z,952.7
2017-09-13T10:57:20.810Z,952.76
2017-09-13T10:58:29.515Z,952.65
2017-09-13T10:59:38.539Z,952.56
2017-09-13T11:00:47.561Z,952.6
2017-09-13T11:01:57.227Z,952.76
2017-09-13T11:03:06.568Z,952.71
2017-09-13T11:04:16.230Z,952.8
2017-09-13T11:05:25.893Z,952.93
2017-09-13T11:06:35.877Z,952.95
2017-09-13T11:07:44.900Z,953
2017-09-13T11:08:54.895Z,952.93
2017-09-13T11:10:04.238Z,952.95
2017-09-13T11:11:13.581Z,953.01
2017-09-13T11:12:22.604Z,952.94
2017-09-13T11:13:31.628Z,952.94
2017-09-13T11:14:41.293Z,953.28
2017-09-13T11:15:49.999Z,953.23
2017-09-13T11:16:59.340Z,953.05
2017-09-13T11:18:09.002Z,953.28
2017-09-13T11:19:18.667Z,953.26
2017-09-13T11:20:28.011Z,953.2
2017-09-13T11:21:37.350Z,953.29
2017-09-13T11:22:46.051Z,953.23
2017-09-13T11:23:55.072Z,953.13
2017-09-13T11:25:04.416Z,953.17
2017-09-13T11:26:13.441Z,953.17
2017-09-13T11:27:22.785Z,953.17
2017-09-13T11:28:32.448Z,953.18
2017-09-13T11:29:41.790Z,953.17
2017-09-13T11:30:51.130Z,953.11
2017-09-13T11:32:00.470Z,953.31
2017-09-13T11:33:09.494Z,953.29
2017-09-13T11:34:19.157Z,953.24
2017-09-13T11:35:28.502Z,953.24
2017-09-13T11:36:37.533Z,953.38
2017-09-13T11:37:46.559Z,953.33
2017-09-13T11:38:56.224Z,953.39
2017-09-13T11:40:05.244Z,953.49
2017-09-13T11:41:14.274Z,953.44
2017-09-13T11:42:23.614Z,953.54
2017-09-13T11:43:33.286Z,953.52
2017-09-13T11:44:42.624Z,953.35
2017-09-13T11:45:51.967Z,953.29
2017-09-13T11:47:01.307Z,953.35
2017-09-13T11:48:10.330Z,953.65
2017-09-13T11:49:19.672Z,953.63
2017-09-13T11:50:28.696Z,953.77
2017-09-13T11:51:37.718Z,953.82
2017-09-13T11:52:47.061Z,953.73
2017-09-13T11:53:56.088Z,953.78
2017-09-13T11:55:05.108Z,953.86
2017-09-13T11:56:13.812Z,953.94
2017-09-13T11:57:22.515Z,953.72
2017-09-13T11:58:31.536Z,953.55
2017-09-13T11:59:40.877Z,953.54
2017-09-13T12:00:50.541Z,953.61
2017-09-13T12:01:59.564Z,953.65
2017-09-13T12:03:08.585Z,953.76
2017-09-13T12:04:18.576Z,953.66
2017-09-13T12:05:27.594Z,953.73
2017-09-13T12:06:36.617Z,953.67
2017-09-13T12:07:45.640Z,953.9
2017-09-13T12:08:54.984Z,953.91
2017-09-13T12:10:04.001Z,953.8
2017-09-13T12:11:12.704Z,953.72
2017-09-13T12:12:21.726Z,953.88
2017-09-13T12:13:31.387Z,953.81
2017-09-13T12:14:40.091Z,953.95
2017-09-13T12:15:49.765Z,953.87
2017-09-13T12:16:59.101Z,953.83
2017-09-13T12:18:08.448Z,953.84
2017-09-13T12:19:17.146Z,953.89
2017-09-13T12:20:26.175Z,953.89
2017-09-13T12:21:35.201Z,953.72
2017-09-13T12:22:44.222Z,953.8
2017-09-13T12:23:53.244Z,953.78
2017-09-13T12:25:02.272Z,953.77
2017-09-13T12:26:11.932Z,953.91
2017-09-13T12:27:20.951Z,953.83
2017-09-13T12:28:29.970Z,953.76
2017-09-13T12:29:38.989Z,953.87
2017-09-13T12:30:47.688Z,953.83
2017-09-13T12:31:57.030Z,953.83
2017-09-13T12:33:06.048Z,953.96
2017-09-13T12:34:15.387Z,953.92
2017-09-13T12:35:24.086Z,953.99
2017-09-13T12:36:32.784Z,953.98
2017-09-13T12:37:42.122Z,953.93
2017-09-13T12:38:51.461Z,953.94
2017-09-13T12:40:00.802Z,953.87
2017-09-13T12:41:09.823Z,953.88
2017-09-13T12:42:18.855Z,953.96
2017-09-13T12:43:28.517Z,954.06
2017-09-13T12:44:37.215Z,953.96
2017-09-13T12:45:46.233Z,954.11
2017-09-13T12:46:55.255Z,954.11
2017-09-13T12:48:04.591Z,954.08
2017-09-13T12:49:13.614Z,954.16
2017-09-13T12:50:23.273Z,954.14
2017-09-13T12:51:32.609Z,954.21
2017-09-13T12:52:41.309Z,954.19
2017-09-13T12:53:50.661Z,954.19
2017-09-13T12:55:00.331Z,954.15
2017-09-13T12:56:09.348Z,954.05
2017-09-13T12:57:19.013Z,954.07
2017-09-13T12:58:28.670Z,954.07
2017-09-13T12:59:37.688Z,954.09
2017-09-13T13:00:47.355Z,954.17
2017-09-13T13:01:57.011Z,954.18
2017-09-13T13:03:06.349Z,954.09
2017-09-13T13:04:16.009Z,954.06
2017-09-13T13:05:24.706Z,954.12
2017-09-13T13:06:33.733Z,954.27
2017-09-13T13:07:43.393Z,954.13
2017-09-13T13:08:53.083Z,954
2017-09-13T13:10:02.737Z,954.1
2017-09-13T13:11:12.100Z,954
2017-09-13T13:12:20.770Z,954.02
2017-09-13T13:13:29.789Z,954.01
2017-09-13T13:14:39.764Z,954.2
2017-09-13T13:15:48.817Z,954.16
2017-09-13T13:16:57.875Z,954.17
2017-09-13T13:18:06.890Z,954.14
2017-09-13T13:19:15.907Z,954.16
2017-09-13T13:20:25.255Z,954.1
2017-09-13T13:21:34.272Z,954.2
2017-09-13T13:22:43.290Z,954.15
2017-09-13T13:23:52.306Z,954.19
2017-09-13T13:25:01.645Z,954.17
2017-09-13T13:26:10.662Z,954.2
2017-09-13T13:27:19.676Z,954.06
2017-09-13T13:28:28.695Z,953.98
2017-09-13T13:29:37.394Z,954.19
2017-09-13T13:30:46.732Z,954.12
2017-09-13T13:31:55.752Z,954.12
2017-09-13T13:33:04.771Z,954.17
2017-09-13T13:34:13.787Z,954.1
2017-09-13T13:35:22.806Z,954.23
2017-09-13T13:36:32.148Z,954.27
2017-09-13T13:37:41.165Z,954.16
2017-09-13T13:38:50.502Z,954.21
2017-09-13T13:40:00.158Z,954.27
2017-09-13T13:41:09.814Z,954.23
2017-09-13T13:42:18.834Z,954.28
2017-09-13T13:43:28.168Z,954.23
2017-09-13T13:44:37.825Z,954.27
2017-09-13T13:45:46.844Z,954.25
2017-09-13T13:46:55.542Z,954.23
2017-09-13T13:48:04.557Z,954.19
2017-09-13T13:49:13.581Z,954.14
2017-09-13T13:50:22.928Z,954.12
2017-09-13T13:51:32.266Z,954.15
2017-09-13T13:52:41.933Z,954.15
2017-09-13T13:53:51.272Z,954.21
2017-09-13T13:55:00.620Z,954.24
2017-09-13T13:56:09.319Z,954.23
2017-09-13T13:57:18.334Z,954.28
2017-09-13T13:58:27.350Z,954.23
2017-09-13T13:59:36.047Z,954.34
2017-09-13T14:00:45.065Z,954.37
2017-09-13T14:01:54.406Z,954.38
2017-09-13T14:03:03.095Z,954.52
2017-09-13T14:04:12.435Z,954.55
2017-09-13T14:05:22.132Z,954.53
2017-09-13T14:06:31.150Z,954.55
2017-09-13T14:07:41.132Z,954.66
2017-09-13T14:08:50.148Z,954.73
2017-09-13T14:09:59.165Z,954.77
2017-09-13T14:11:08.509Z,954.77
2017-09-13T14:12:17.525Z,954.72
2017-09-13T14:13:26.224Z,954.63
2017-09-13T14:14:35.888Z,954.63
2017-09-13T14:15:45.245Z,954.68
2017-09-13T14:16:55.218Z,954.6
2017-09-13T14:18:04.236Z,954.64
2017-09-13T14:19:12.934Z,954.57
2017-09-13T14:20:21.633Z,954.58
2017-09-13T14:21:31.292Z,954.71
2017-09-13T14:22:39.991Z,954.58
2017-09-13T14:23:49.015Z,954.61
2017-09-13T14:24:58.032Z,954.67